EKSB

Sønderborg Airport

Sønderborg, Denmark
METAR EKSB 201650Z AUTO 28005KT 240V350 9999NDV BKN140/// 11/08 Q1027
Observed Flight Rules
Oct-20 @ 16:50 UTC (22 minutes ago)
Wind Clouds
280° at 5 knots
  • Broken at 14,000' AGL
Temperatures Readings
Current 11°C / 52°F
Dewpoint 8°C / 46°F
Humidity 82%
Altimeter 30.32" Hg
Pressure 1027 hPa
Elevation 23
METAR EKSB 201650Z AUTO 28005KT 240V350 9999NDV BKN140/// 11/08 Q1027
Observed Flight Rules
Oct-20 @ 16:50 UTC
(22 minutes ago)
Wind
280° at 5 knots
Clouds
  • Broken at 14,000' AGL
Temperature Dewpoint
11°C / 52°F 8°C / 46°F
Humidity Altimeter Pressure
82% 30.32" Hg 1027 hPa